Time;durP1;ratioP1;P1;durP2;ratioP2;P2;SDS_P1;SDS_P2;PMS_P1;PMS_P2;Temp;Humidity;BMP_temperature;BMP_pressure;BME280_temperature;BME280_humidity;BME280_pressure;Samples;Min_cycle;Max_cycle;Signal;HPM_P1;HPM_P2
2022/10/15 00:01:15;;;;;;;6.15;2.72;;;;;;;8.31;100.00;100478.17;1743878;80;21506;-65
2022/10/15 00:03:43;;;;;;;3.60;2.52;;;;;;;8.31;100.00;100480.34;1737901;80;21427;-65
2022/10/15 00:06:14;;;;;;;3.37;2.67;;;;;;;8.28;100.00;100473.84;1693768;83;21486;-66
2022/10/15 00:08:43;;;;;;;3.22;2.72;;;;;;;8.28;100.00;100475.61;1738647;80;20974;-65
2022/10/15 00:11:14;;;;;;;3.45;2.60;;;;;;;8.27;100.00;100473.44;1745629;80;21581;-64
2022/10/15 00:13:44;;;;;;;4.45;3.10;;;;;;;8.24;100.00;100472.18;1735689;80;21470;-65
2022/10/15 00:16:16;;;;;;;3.33;3.02;;;;;;;8.24;100.00;100473.95;1743855;80;21443;-65
2022/10/15 00:18:44;;;;;;;4.12;3.00;;;;;;;8.18;100.00;100469.23;1735171;80;21553;-64
2022/10/15 00:21:13;;;;;;;4.40;3.12;;;;;;;8.14;100.00;100473.27;1745068;80;22962;-65
2022/10/15 00:23:40;;;;;;;4.67;3.35;;;;;;;8.13;100.00;100474.14;1737044;80;21473;-65
2022/10/15 00:26:18;;;;;;;5.17;2.70;;;;;;;8.07;100.00;100467.27;1725076;80;21513;-64
2022/10/15 00:28:47;;;;;;;4.30;3.55;;;;;;;8.09;100.00;100463.31;1735818;80;21498;-64
2022/10/15 00:31:16;;;;;;;5.17;3.12;;;;;;;8.06;100.00;100464.25;1721728;81;21592;-64
2022/10/15 00:33:43;;;;;;;4.40;3.05;;;;;;;8.05;100.00;100467.75;1737143;80;22101;-65
2022/10/15 00:36:13;;;;;;;3.50;2.80;;;;;;;8.05;100.00;100461.20;1753060;80;27235;-65
2022/10/15 00:38:40;;;;;;;5.75;2.80;;;;;;;8.07;100.00;100463.34;1742696;80;21636;-65
2022/10/15 00:41:16;;;;;;;4.92;3.08;;;;;;;8.10;100.00;100464.60;1702869;82;20956;-66
2022/10/15 00:43:46;;;;;;;6.53;3.27;;;;;;;8.12;100.00;100459.34;1698691;83;21617;-66
2022/10/15 00:46:38;;;;;;;4.25;3.17;;;;;;;8.11;100.00;100462.84;1734593;80;21887;-66
2022/10/15 00:49:23;;;;;;;4.08;2.98;;;;;;;8.12;100.00;100464.58;1703701;82;21586;-67
2022/10/15 00:51:58;;;;;;;3.63;3.13;;;;;;;8.10;100.00;100468.53;1736563;80;21443;-65
2022/10/15 00:54:26;;;;;;;4.20;3.15;;;;;;;8.06;100.00;100464.25;1692288;82;21581;-65
2022/10/15 00:56:57;;;;;;;;;;;;;;;8.04;100.00;100473.02;1697698;83;21112;-66
2022/10/15 00:59:25;;;;;;;4.87;2.83;;;;;;;7.98;100.00;100469.61;1683318;82;22134;-65
2022/10/15 01:01:53;;;;;;;3.92;3.22;;;;;;;7.98;100.00;100473.99;1733980;80;21468;-66
2022/10/15 01:04:20;;;;;;;4.33;3.00;;;;;;;7.96;100.00;100462.69;1739909;80;20943;-65
2022/10/15 01:06:47;;;;;;;3.10;2.77;;;;;;;7.92;100.00;100464.95;1735735;80;21612;-65
2022/10/15 01:09:13;;;;;;;3.83;2.98;;;;;;;7.92;100.00;100468.88;1741827;80;21530;-66
2022/10/15 01:11:46;;;;;;;5.50;3.00;;;;;;;7.91;100.00;100473.68;1733797;80;21455;-65
2022/10/15 01:14:31;;;;;;;3.33;2.58;;;;;;;7.92;100.00;100472.35;1732049;80;21566;-65
2022/10/15 01:17:12;;;;;;;4.83;3.42;;;;;;;7.94;100.00;100470.56;1700734;83;21395;-65
2022/10/15 01:20:22;;;;;;;4.72;3.42;;;;;;;7.97;100.00;100472.28;1739826;80;21004;-65
2022/10/15 01:23:14;;;;;;;4.28;3.10;;;;;;;7.96;100.00;100465.30;1742893;80;21499;-65
2022/10/15 01:26:07;;;;;;;4.33;3.02;;;;;;;7.94;100.00;100465.78;1723986;80;21881;-65
2022/10/15 01:29:12;;;;;;;5.08;2.92;;;;;;;7.95;100.00;100459.21;1739302;80;21578;-65
2022/10/15 01:31:57;;;;;;;5.50;3.30;;;;;;;7.94;100.00;100457.92;1694569;82;21063;-65
2022/10/15 01:34:52;;;;;;;3.83;3.27;;;;;;;7.91;100.00;100461.48;1738003;80;20987;-65
2022/10/15 01:37:33;;;;;;;3.67;3.00;;;;;;;7.88;100.00;100461.52;1691346;81;21443;-65
2022/10/15 01:40:11;;;;;;;3.58;3.10;;;;;;;7.86;100.00;100464.62;1741952;80;21423;-65
2022/10/15 01:42:58;;;;;;;5.58;3.30;;;;;;;7.82;100.00;100460.34;1736157;80;21522;-65
2022/10/15 01:45:38;;;;;;;4.90;3.65;;;;;;;7.77;100.00;100460.41;1695513;82;20997;-65
2022/10/15 01:48:13;;;;;;;5.90;3.42;;;;;;;7.72;100.00;100461.38;1698538;82;21430;-65
2022/10/15 01:53:15;;;;;;;4.95;3.30;;;;;;;7.25;100.00;100472.20;1786854;78;23252;-66
2022/10/15 01:55:42;;;;;;;4.37;3.30;;;;;;;7.67;100.00;100464.55;1769516;80;21557;-66
2022/10/15 01:58:09;;;;;;;4.30;3.17;;;;;;;7.70;100.00;100473.63;1762082;80;26468;-66
2022/10/15 02:00:36;;;;;;;5.10;3.17;;;;;;;7.73;100.00;100469.66;1767369;80;21033;-66
2022/10/15 02:03:03;;;;;;;5.50;3.58;;;;;;;7.77;100.00;100471.33;1766305;80;21580;-66
2022/10/15 02:05:40;;;;;;;3.90;2.90;;;;;;;7.75;100.00;100468.73;1761852;80;21558;-66
2022/10/15 02:08:21;;;;;;;5.97;3.20;;;;;;;7.76;100.00;100466.97;1760906;80;21566;-65
2022/10/15 02:11:12;;;;;;;5.30;3.27;;;;;;;7.78;100.00;100474.37;1760498;80;21838;-65
2022/10/15 02:14:07;;;;;;;5.35;3.52;;;;;;;7.83;100.00;100478.20;1754532;80;21482;-65
2022/10/15 02:16:49;;;;;;;4.53;3.30;;;;;;;7.84;100.00;100479.95;1759911;80;21560;-65
2022/10/15 02:19:27;;;;;;;3.83;3.42;;;;;;;7.82;100.00;100479.08;1764758;80;21018;-64
2022/10/15 02:22:04;;;;;;;5.53;3.25;;;;;;;7.79;100.00;100474.78;1724275;80;21001;-66
2022/10/15 02:24:53;;;;;;;4.05;3.40;;;;;;;7.78;100.00;100477.00;1765660;80;22390;-66
2022/10/15 02:27:19;;;;;;;5.20;3.72;;;;;;;7.75;100.00;100476.59;1763554;80;21032;-63
2022/10/15 02:29:48;;;;;;;6.70;3.50;;;;;;;7.74;100.00;100477.50;1772959;80;21435;-64
2022/10/15 02:32:19;;;;;;;4.30;3.25;;;;;;;7.73;100.00;100479.68;1759330;80;20962;-64
2022/10/15 02:34:46;;;;;;;4.05;3.30;;;;;;;7.75;100.00;100483.59;1765560;80;21562;-63
2022/10/15 02:37:13;;;;;;;;;;;;;;;7.80;100.00;100481.30;1764514;80;21677;-63
2022/10/15 02:39:41;;;;;;;6.50;3.33;;;;;;;7.78;100.00;100481.78;1767760;80;20158;-63
2022/10/15 02:42:07;;;;;;;3.35;2.87;;;;;;;7.77;100.00;100487.04;1766765;80;21511;-63
2022/10/15 02:44:35;;;;;;;3.95;2.83;;;;;;;7.85;100.00;100490.83;1742783;80;21509;-64
2022/10/15 02:47:02;;;;;;;3.22;2.90;;;;;;;7.89;100.00;100493.38;1763334;80;20975;-64
2022/10/15 02:49:29;;;;;;;3.55;2.85;;;;;;;7.92;100.00;100489.38;1746091;80;21888;-64
2022/10/15 02:51:56;;;;;;;3.98;2.80;;;;;;;7.94;100.00;100491.52;1768171;79;21456;-64
2022/10/15 02:54:23;;;;;;;3.85;3.08;;;;;;;8.01;100.00;100496.20;1751245;80;21515;-64
2022/10/15 02:56:50;;;;;;;5.87;3.17;;;;;;;8.03;100.00;100493.11;1751163;80;21439;-64
2022/10/15 02:59:18;;;;;;;5.00;3.00;;;;;;;8.03;100.00;100490.48;1755970;80;21552;-65
2022/10/15 03:01:45;;;;;;;3.65;2.80;;;;;;;8.06;100.00;100491.75;1752969;80;21930;-65
2022/10/15 03:04:13;;;;;;;6.90;3.58;;;;;;;8.04;100.00;100490.03;1750715;80;21534;-65
2022/10/15 03:06:41;;;;;;;3.90;3.20;;;;;;;8.01;100.00;100487.04;1754151;80;21467;-65
2022/10/15 03:09:08;;;;;;;4.28;3.45;;;;;;;7.96;100.00;100491.04;1747865;80;21491;-65
2022/10/15 03:11:37;;;;;;;5.65;3.25;;;;;;;7.98;100.00;100491.02;1745834;80;21614;-64
2022/10/15 03:14:04;;;;;;;3.60;3.17;;;;;;;7.95;100.00;100489.78;1722753;80;21924;-65
2022/10/15 03:16:31;;;;;;;5.00;3.65;;;;;;;7.96;100.00;100488.88;1756192;80;21403;-65
2022/10/15 03:18:59;;;;;;;3.75;3.10;;;;;;;7.94;100.00;100487.59;1759188;80;20998;-65
2022/10/15 03:21:29;;;;;;;4.45;3.47;;;;;;;7.94;100.00;100489.34;1750157;80;21466;-65
2022/10/15 03:23:57;;;;;;;4.97;3.35;;;;;;;7.96;100.00;100483.18;1751822;80;21482;-65
2022/10/15 03:26:24;;;;;;;7.33;4.12;;;;;;;7.94;100.00;100494.13;1754444;80;21821;-65
2022/10/15 03:28:51;;;;;;;5.28;3.75;;;;;;;7.91;100.00;100488.97;1753184;80;21518;-65
2022/10/15 03:31:19;;;;;;;4.80;3.90;;;;;;;7.92;100.00;100483.28;1747928;80;21629;-64
2022/10/15 03:33:49;;;;;;;4.42;3.90;;;;;;;7.92;100.00;100485.44;1753678;80;21073;-64
2022/10/15 03:36:17;;;;;;;9.58;4.25;;;;;;;7.91;100.00;100491.59;1753790;80;21539;-64
2022/10/15 03:38:45;;;;;;;3.77;3.47;;;;;;;7.91;100.00;100487.66;1752969;80;21814;-67
2022/10/15 03:41:13;;;;;;;6.97;4.80;;;;;;;7.94;100.00;100487.59;1751522;80;21507;-65
2022/10/15 03:43:40;;;;;;;5.80;4.12;;;;;;;7.91;100.00;100492.02;1751067;80;21435;-65
2022/10/15 03:46:07;;;;;;;4.87;4.20;;;;;;;7.88;100.00;100486.40;1746651;80;21531;-65
2022/10/15 03:48:37;;;;;;;4.75;4.05;;;;;;;7.85;100.00;100482.97;1752231;80;21538;-65
2022/10/15 03:51:04;;;;;;;4.58;4.08;;;;;;;7.83;100.00;100488.69;1749366;80;21881;-65
2022/10/15 03:53:31;;;;;;;4.55;4.05;;;;;;;7.81;100.00;100484.78;1758577;80;20993;-66
2022/10/15 03:56:04;;;;;;;6.55;4.50;;;;;;;7.82;100.00;100490.87;1746662;80;20971;-65
2022/10/15 03:58:31;;;;;;;4.30;3.77;;;;;;;7.81;100.00;100493.94;1764340;80;21460;-65
2022/10/15 04:01:00;;;;;;;6.08;4.30;;;;;;;7.82;100.00;100494.37;1769179;80;21554;-65
2022/10/15 04:03:27;;;;;;;6.83;3.65;;;;;;;7.86;100.00;100492.56;1763155;80;21923;-65
2022/10/15 04:05:54;;;;;;;5.58;3.95;;;;;;;7.87;100.00;100491.20;1756861;80;21556;-65
2022/10/15 04:08:22;;;;;;;;;;;;;;;7.86;100.00;100494.73;1773532;80;21624;-65
2022/10/15 04:10:50;;;;;;;5.78;3.92;;;;;;;7.80;100.00;100488.30;1759639;80;20496;-65
2022/10/15 04:13:17;;;;;;;;;;;;;;;7.85;100.00;100493.44;1759920;80;21063;-64
2022/10/15 04:15:43;;;;;;;7.17;4.45;;;;;;;7.82;100.00;100493.48;1764815;80;21987;-68
2022/10/15 04:18:12;;;;;;;6.92;5.17;;;;;;;7.85;100.00;100497.38;1771422;80;21423;-64
2022/10/15 04:20:41;;;;;;;7.12;4.97;;;;;;;7.88;100.00;100500.80;1754653;80;21484;-64
2022/10/15 04:23:12;;;;;;;7.53;5.75;;;;;;;7.86;100.00;100496.49;1755214;80;21459;-64
2022/10/15 04:25:40;;;;;;;7.92;5.37;;;;;;;7.89;100.00;100499.03;1757719;80;21606;-63
2022/10/15 04:28:08;;;;;;;6.92;5.30;;;;;;;7.86;100.00;100501.27;1766974;80;21819;-63
2022/10/15 04:30:35;;;;;;;7.78;5.05;;;;;;;7.84;100.00;100497.83;1758053;80;20989;-63
2022/10/15 04:33:04;;;;;;;8.58;6.40;;;;;;;7.84;100.00;100496.97;1761284;80;21604;-63
2022/10/15 04:35:31;;;;;;;7.30;6.03;;;;;;;7.80;100.00;100497.02;1755889;80;21498;-64
2022/10/15 04:38:05;;;;;;;10.13;6.40;;;;;;;7.79;100.00;100497.03;1756296;80;21499;-66
2022/10/15 04:41:03;;;;;;;6.67;5.75;;;;;;;7.78;100.00;100492.70;1755700;80;21799;-63
2022/10/15 04:43:32;;;;;;;8.15;5.70;;;;;;;7.73;100.00;100494.53;1758376;80;21411;-63
2022/10/15 04:46:03;;;;;;;8.10;5.95;;;;;;;7.70;100.00;100497.19;1746154;80;21613;-64
2022/10/15 04:48:33;;;;;;;9.70;5.35;;;;;;;7.67;100.00;100493.34;1743341;80;21546;-64
2022/10/15 04:51:09;;;;;;;8.10;5.80;;;;;;;7.68;100.00;100498.98;1763405;80;20997;-64
2022/10/15 04:53:41;;;;;;;7.72;4.95;;;;;;;7.70;100.00;100507.20;1754930;80;21836;-64
2022/10/15 04:56:14;;;;;;;6.87;5.42;;;;;;;7.74;100.00;100506.30;1763716;80;21530;-64
2022/10/15 04:58:42;;;;;;;6.42;5.12;;;;;;;7.78;100.00;100503.17;1750311;80;21462;-65
2022/10/15 05:01:11;;;;;;;5.67;5.03;;;;;;;7.80;100.00;100504.02;1761509;80;21499;-64
2022/10/15 05:03:41;;;;;;;7.12;5.90;;;;;;;7.83;100.00;100509.17;1760613;80;21053;-64
2022/10/15 05:06:12;;;;;;;6.47;5.33;;;;;;;7.83;100.00;100506.55;1760653;80;21876;-65
2022/10/15 05:08:43;;;;;;;7.97;6.00;;;;;;;7.82;100.00;100507.46;1758110;80;21499;-64
2022/10/15 05:11:19;;;;;;;8.48;6.80;;;;;;;7.87;100.00;100517.84;1757210;80;21558;-64
2022/10/15 05:13:45;;;;;;;7.42;5.50;;;;;;;7.86;100.00;100513.06;1763961;80;21505;-65
2022/10/15 05:16:22;;;;;;;8.20;5.77;;;;;;;7.89;100.00;100514.33;1764134;80;21482;-65
2022/10/15 05:18:51;;;;;;;6.42;5.58;;;;;;;8.01;100.00;100515.84;1760016;80;21899;-66
2022/10/15 05:21:19;;;;;;;9.03;5.15;;;;;;;8.12;100.00;100516.52;1749243;80;20960;-66
2022/10/15 05:23:49;;;;;;;6.15;5.28;;;;;;;8.18;100.00;100511.15;1762773;80;21542;-66
2022/10/15 05:26:20;;;;;;;10.93;5.85;;;;;;;8.25;100.00;100512.33;1736175;80;21518;-66
2022/10/15 05:28:49;;;;;;;6.55;5.03;;;;;;;8.31;100.00;100514.86;1763978;80;21049;-66
2022/10/15 05:31:21;;;;;;;5.97;5.35;;;;;;;8.38;100.00;100518.63;1764596;80;21751;-66
2022/10/15 05:33:50;;;;;;;9.95;4.75;;;;;;;8.45;100.00;100519.39;1753051;80;21398;-66
2022/10/15 05:36:25;;;;;;;6.67;4.97;;;;;;;8.50;100.00;100523.25;1749625;80;21673;-66
2022/10/15 05:38:59;;;;;;;5.90;4.80;;;;;;;8.57;100.00;100523.09;1756726;80;21621;-66
2022/10/15 05:41:26;;;;;;;6.60;4.83;;;;;;;8.66;100.00;100519.39;1764446;80;21592;-67
2022/10/15 05:43:54;;;;;;;8.53;5.42;;;;;;;8.74;100.00;100527.12;1758094;80;21833;-67
2022/10/15 05:46:24;;;;;;;5.97;4.40;;;;;;;8.79;100.00;100526.55;1765213;80;21560;-66
2022/10/15 05:48:55;;;;;;;5.37;4.10;;;;;;;8.90;100.00;100524.56;1750653;80;21510;-66
2022/10/15 05:51:23;;;;;;;7.87;4.60;;;;;;;9.03;100.00;100523.85;1755234;80;21471;-66
2022/10/15 05:53:54;;;;;;;7.35;4.33;;;;;;;9.11;100.00;100527.16;1756719;80;21486;-62
2022/10/15 05:56:21;;;;;;;5.92;4.20;;;;;;;9.23;100.00;100519.90;1760819;80;21805;-62
2022/10/15 05:58:48;;;;;;;4.87;3.80;;;;;;;9.31;100.00;100517.52;1759261;80;21005;-63
2022/10/15 06:01:15;;;;;;;;;;;;;;;9.34;100.00;100521.39;1755277;80;21531;-62
2022/10/15 06:03:46;;;;;;;4.30;3.72;;;;;;;9.41;100.00;100523.87;1765896;80;20440;-63
2022/10/15 06:06:19;;;;;;;6.28;4.08;;;;;;;9.42;100.00;100521.21;1749458;80;20991;-62
2022/10/15 06:08:48;;;;;;;4.55;4.15;;;;;;;9.47;100.00;100519.31;1721316;82;21620;-65
2022/10/15 06:11:16;;;;;;;6.00;3.90;;;;;;;9.53;100.00;100520.92;1723866;82;21645;-62
2022/10/15 06:13:43;;;;;;;5.87;4.72;;;;;;;9.59;100.00;100524.73;1693615;83;21054;-62
2022/10/15 06:16:12;;;;;;;8.35;4.90;;;;;;;9.68;100.00;100523.20;1711324;82;21500;-60
2022/10/15 06:18:38;;;;;;;5.97;5.17;;;;;;;9.74;100.00;100529.59;1712895;82;21573;-61
2022/10/15 06:21:06;;;;;;;8.55;5.62;;;;;;;9.80;100.00;100533.84;1713890;82;21910;-63
2022/10/15 06:23:33;;;;;;;6.53;5.35;;;;;;;9.88;100.00;100527.07;1710018;82;21540;-63
2022/10/15 06:26:06;;;;;;;6.58;5.37;;;;;;;9.98;100.00;100542.14;1708286;82;21565;-63
2022/10/15 06:28:34;;;;;;;5.15;4.15;;;;;;;10.07;100.00;100541.90;1713903;82;21945;-63
2022/10/15 06:31:00;;;;;;;5.95;4.33;;;;;;;10.22;100.00;100539.31;1700003;82;21061;-63
2022/10/15 06:33:31;;;;;;;5.67;4.30;;;;;;;10.36;100.00;100541.59;1703319;82;21022;-61
2022/10/15 06:36:05;;;;;;;5.53;3.87;;;;;;;10.49;100.00;100533.77;1712914;82;21646;-62
2022/10/15 06:38:32;;;;;;;4.85;4.15;;;;;;;10.56;100.00;100543.21;1710564;82;21437;-62
2022/10/15 06:40:59;;;;;;;3.98;3.25;;;;;;;10.60;100.00;100543.53;1717371;82;21112;-63
2022/10/15 06:43:26;;;;;;;3.52;3.15;;;;;;;10.63;100.00;100544.77;1703299;82;21080;-61
2022/10/15 06:45:52;;;;;;;6.60;3.30;;;;;;;10.70;100.00;100542.37;1711286;83;21950;-63
2022/10/15 06:48:19;;;;;;;4.58;2.98;;;;;;;10.84;100.00;100532.75;1708556;82;21431;-62
2022/10/15 06:50:46;;;;;;;4.15;2.75;;;;;;;10.96;100.00;100542.03;1703869;83;20998;-65
2022/10/15 06:53:13;;;;;;;3.12;2.42;;;;;;;11.09;99.55;100547.80;1710951;82;21535;-65
2022/10/15 06:55:39;;;;;;;3.85;2.75;;;;;;;11.16;97.52;100545.39;1700420;82;21088;-65
2022/10/15 06:58:07;;;;;;;4.78;2.67;;;;;;;11.23;95.30;100549.56;1679564;84;21678;-64
2022/10/15 07:00:35;;;;;;;5.57;2.43;;;;;;;11.29;93.16;100548.52;1749024;80;21523;-65
2022/10/15 07:03:04;;;;;;;3.98;2.47;;;;;;;11.39;92.57;100550.39;1750098;80;21717;-65
2022/10/15 07:05:32;;;;;;;6.72;3.87;;;;;;;11.48;92.15;100552.27;1748371;80;21489;-68
2022/10/15 07:08:02;;;;;;;5.72;3.33;;;;;;;11.55;87.84;100549.00;1749038;80;21480;-64
2022/10/15 07:10:32;;;;;;;4.10;3.02;;;;;;;11.62;88.17;100549.21;1748125;80;22070;-64
2022/10/15 07:13:00;;;;;;;3.65;2.60;;;;;;;11.73;88.82;100550.62;1747103;80;21414;-65
2022/10/15 07:15:27;;;;;;;5.22;2.58;;;;;;;11.82;87.90;100550.31;1750804;80;21543;-64
2022/10/15 07:17:59;;;;;;;4.40;2.30;;;;;;;11.87;85.86;100543.13;1746898;80;21517;-65
2022/10/15 07:20:29;;;;;;;4.37;2.60;;;;;;;12.00;85.31;100552.83;1746900;80;21129;-64
2022/10/15 07:23:00;;;;;;;2.45;2.25;;;;;;;12.08;84.74;100547.68;1746505;80;21749;-65
2022/10/15 07:25:30;;;;;;;2.60;2.22;;;;;;;12.19;83.00;100545.14;1747206;80;21463;-64
2022/10/15 07:27:56;;;;;;;;;;;;;;;12.27;80.63;100541.77;1748793;80;21506;-64
2022/10/15 07:30:26;;;;;;;4.03;2.35;;;;;;;12.33;75.02;100549.45;1746347;80;20484;-63
2022/10/15 07:32:58;;;;;;;3.02;2.00;;;;;;;12.44;81.07;100549.92;1743049;80;21530;-65
2022/10/15 07:35:25;;;;;;;3.80;2.05;;;;;;;12.52;78.88;100548.33;1749500;80;21928;-65
2022/10/15 07:37:52;;;;;;;2.60;1.62;;;;;;;12.62;78.68;100554.12;1750947;80;21925;-64
2022/10/15 07:40:19;;;;;;;1.37;1.27;;;;;;;12.71;78.30;100552.47;1741209;80;21022;-63
2022/10/15 07:42:54;;;;;;;1.60;1.43;;;;;;;12.75;72.70;100554.09;1701254;82;21018;-63
2022/10/15 07:45:23;;;;;;;2.25;1.72;;;;;;;12.75;72.70;100554.09;1669192;83;22076;-63
2022/10/15 07:47:50;;;;;;;2.17;1.98;;;;;;;12.82;73.33;100548.97;1702137;82;21474;-62
2022/10/15 07:50:18;;;;;;;2.95;1.98;;;;;;;12.91;74.71;100549.56;1704866;82;21637;-64
2022/10/15 07:52:49;;;;;;;1.77;1.67;;;;;;;13.01;74.33;100548.27;1709024;82;21480;-63
2022/10/15 07:55:16;;;;;;;2.40;1.62;;;;;;;13.13;73.32;100552.20;1749408;80;21577;-63
2022/10/15 07:57:43;;;;;;;2.97;1.87;;;;;;;13.27;73.29;100553.02;1748488;80;21610;-64
2022/10/15 08:00:11;;;;;;;2.43;1.33;;;;;;;13.38;70.93;100554.80;1751658;79;22248;-64
2022/10/15 08:02:42;;;;;;;2.37;1.95;;;;;;;13.46;68.90;100550.53;1751640;80;21593;-64
2022/10/15 08:05:10;;;;;;;2.08;1.77;;;;;;;13.49;69.23;100553.91;1743694;80;21554;-63
2022/10/15 08:07:36;;;;;;;2.42;1.87;;;;;;;13.61;69.51;100556.03;1747438;80;21507;-62
2022/10/15 08:10:07;;;;;;;1.50;1.37;;;;;;;13.71;69.40;100556.98;1748037;79;21495;-63
2022/10/15 08:12:33;;;;;;;1.92;1.50;;;;;;;13.79;69.68;100561.03;1748912;80;21751;-61
2022/10/15 08:15:00;;;;;;;2.05;1.62;;;;;;;13.87;67.05;100556.75;1745290;80;20970;-62
2022/10/15 08:17:26;;;;;;;2.60;1.90;;;;;;;13.92;66.58;100559.19;1753725;80;20931;-62
2022/10/15 08:19:54;;;;;;;2.27;1.37;;;;;;;13.98;65.04;100557.16;1751488;80;21427;-63
2022/10/15 08:22:21;;;;;;;1.60;1.40;;;;;;;14.05;63.62;100552.92;1754514;79;21519;-62
2022/10/15 08:24:48;;;;;;;1.30;1.20;;;;;;;14.14;64.41;100555.17;1748733;80;21925;-64
2022/10/15 08:27:15;;;;;;;3.20;1.17;;;;;;;14.20;62.72;100557.55;1741182;80;21068;-62
2022/10/15 08:29:43;;;;;;;4.37;1.50;;;;;;;14.32;63.09;100550.89;1752309;80;21659;-63
2022/10/15 08:32:11;;;;;;;2.12;1.12;;;;;;;14.40;62.63;100553.56;1742717;80;21038;-63
2022/10/15 08:34:38;;;;;;;4.90;1.17;;;;;;;14.49;61.02;100549.66;1713370;81;21569;-63
2022/10/15 08:37:06;;;;;;;1.20;1.10;;;;;;;14.59;62.52;100547.02;1746945;80;21520;-63
2022/10/15 08:39:33;;;;;;;1.57;1.20;;;;;;;14.69;61.01;100554.11;1751189;80;21460;-64
2022/10/15 08:42:03;;;;;;;1.20;1.17;;;;;;;14.78;60.34;100551.48;1748091;80;21502;-63
2022/10/15 08:44:48;;;;;;;2.17;1.60;;;;;;;14.80;59.73;100545.65;1748370;80;21467;-64
2022/10/15 08:47:48;;;;;;;2.67;1.27;;;;;;;14.78;58.71;100547.04;1746959;80;22836;-64
2022/10/15 08:50:42;;;;;;;1.72;1.45;;;;;;;14.84;59.12;100549.02;1746903;80;21490;-62
2022/10/15 08:53:13;;;;;;;2.15;0.90;;;;;;;14.90;58.46;100545.64;1748128;80;21419;-61
2022/10/15 08:55:43;;;;;;;1.30;1.02;;;;;;;14.95;58.74;100543.61;1752545;80;20959;-64
2022/10/15 08:58:42;;;;;;;1.17;0.90;;;;;;;15.07;57.72;100546.62;1746681;80;21556;-63
2022/10/15 09:01:30;;;;;;;2.62;1.27;;;;;;;15.17;56.72;100541.30;1743160;79;21586;-63
2022/10/15 09:04:23;;;;;;;2.17;1.00;;;;;;;15.22;55.61;100543.27;1749690;80;21817;-62
2022/10/15 09:07:08;;;;;;;1.67;1.42;;;;;;;15.24;54.96;100545.81;1744761;80;21467;-62
2022/10/15 09:09:46;;;;;;;1.37;1.27;;;;;;;15.21;54.60;100538.88;1740757;80;21514;-64
2022/10/15 09:12:49;;;;;;;1.35;1.20;;;;;;;15.27;54.89;100548.33;1740005;80;21478;-64
2022/10/15 09:15:19;;;;;;;1.50;1.12;;;;;;;15.34;53.90;100547.95;1747088;80;21069;-65
2022/10/15 09:17:47;;;;;;;;;;;;;;;15.41;53.79;100537.94;1753381;80;21731;-65
2022/10/15 09:20:25;;;;;;;2.40;1.07;;;;;;;15.52;48.81;100538.27;1750761;80;20476;-64
2022/10/15 09:22:53;;;;;;;1.20;0.82;;;;;;;15.60;55.13;100543.66;1745506;80;21542;-63
2022/10/15 09:25:23;;;;;;;2.42;1.20;;;;;;;15.72;53.10;100533.76;1745211;80;21459;-62
2022/10/15 09:27:51;;;;;;;0.98;0.98;;;;;;;15.82;52.88;100541.66;1745135;80;21502;-63
2022/10/15 09:30:36;;;;;;;1.45;1.20;;;;;;;15.88;52.12;100536.52;1738393;80;21955;-64
2022/10/15 09:33:36;;;;;;;1.70;1.10;;;;;;;15.94;51.75;100538.87;1745279;80;21112;-64
2022/10/15 09:36:30;;;;;;;3.17;1.10;;;;;;;15.97;50.46;100540.03;1751260;80;21597;-68
2022/10/15 09:39:25;;;;;;;1.32;1.00;;;;;;;16.03;50.38;100537.53;1746632;80;21570;-68
2022/10/15 09:42:16;;;;;;;2.37;0.90;;;;;;;16.01;50.12;100533.66;1746761;79;21545;-68
2022/10/15 09:44:43;;;;;;;3.45;1.00;;;;;;;16.07;49.46;100530.69;1748395;80;21802;-66
2022/10/15 09:47:23;;;;;;;1.87;1.17;;;;;;;16.10;50.15;100533.63;1746523;79;21606;-64
2022/10/15 09:49:50;;;;;;;5.12;1.20;;;;;;;16.16;50.16;100530.66;1707675;82;21425;-62
2022/10/15 09:52:41;;;;;;;1.30;1.00;;;;;;;16.25;49.83;100535.48;1745787;80;21506;-64
2022/10/15 09:55:37;;;;;;;1.57;1.07;;;;;;;16.30;48.25;100536.11;1745760;80;21496;-63
2022/10/15 09:58:25;;;;;;;1.17;1.05;;;;;;;16.34;48.27;100530.17;1754882;80;21740;-63
2022/10/15 10:01:06;;;;;;;2.12;1.00;;;;;;;16.38;47.81;100530.88;1750140;80;20994;-65
2022/10/15 10:03:39;;;;;;;3.17;1.05;;;;;;;16.50;48.25;100527.10;1757681;80;21508;-64
2022/10/15 10:06:12;;;;;;;1.10;0.80;;;;;;;16.58;48.03;100524.52;1750805;80;21596;-63
2022/10/15 10:08:58;;;;;;;1.80;1.40;;;;;;;16.68;47.37;100529.22;1759440;79;21112;-65
2022/10/15 10:11:26;;;;;;;4.25;1.07;;;;;;;16.77;47.66;100523.89;1753214;80;21896;-65
2022/10/15 10:13:58;;;;;;;3.55;1.20;;;;;;;16.81;46.49;100520.12;1748629;80;21595;-67
2022/10/15 10:16:25;;;;;;;1.92;1.10;;;;;;;16.82;47.02;100522.30;1750634;80;21533;-68
2022/10/15 10:19:13;;;;;;;2.20;1.30;;;;;;;16.91;46.66;100522.71;1755234;80;21049;-65
2022/10/15 10:21:42;;;;;;;1.52;1.10;;;;;;;16.95;45.54;100530.01;1751341;80;21527;-66
2022/10/15 10:24:29;;;;;;;2.22;1.40;;;;;;;16.95;44.96;100520.71;1686590;83;21859;-67
2022/10/15 10:26:58;;;;;;;1.85;1.22;;;;;;;16.88;44.91;100523.34;1756424;79;21528;-67
2022/10/15 10:29:25;;;;;;;1.62;1.30;;;;;;;16.95;45.52;100518.05;1753018;80;21596;-66
2022/10/15 10:31:52;;;;;;;3.02;1.30;;;;;;;16.98;45.78;100518.37;1693648;83;21472;-67
2022/10/15 10:34:31;;;;;;;1.72;1.35;;;;;;;17.01;45.41;100519.06;1745643;80;21720;-66
2022/10/15 10:37:00;;;;;;;3.55;1.47;;;;;;;17.06;44.90;100515.66;1735591;80;21806;-67
2022/10/15 10:39:32;;;;;;;1.15;1.00;;;;;;;17.10;44.66;100519.88;1710724;80;21857;-69
2022/10/15 10:42:03;;;;;;;1.67;1.37;;;;;;;17.13;45.09;100515.70;1743457;80;20983;-66
2022/10/15 10:44:36;;;;;;;4.15;1.35;;;;;;;17.23;44.79;100511.20;1750552;80;21624;-65
2022/10/15 10:47:24;;;;;;;2.22;1.35;;;;;;;17.26;44.71;100505.72;1741883;80;21092;-63
2022/10/15 10:49:56;;;;;;;2.75;1.07;;;;;;;17.32;44.08;100498.24;1747820;80;21807;-68
2022/10/15 10:52:35;;;;;;;2.42;1.20;;;;;;;17.27;43.15;100496.34;1749759;79;21439;-64
2022/10/15 10:55:20;;;;;;;2.35;1.42;;;;;;;17.29;43.26;100499.77;1753656;80;21072;-63
2022/10/15 10:57:51;;;;;;;3.47;1.12;;;;;;;17.34;42.87;100499.48;1756394;80;21604;-66
2022/10/15 11:00:32;;;;;;;2.27;1.40;;;;;;;17.37;42.85;100503.31;1760465;80;21577;-66
2022/10/15 11:02:59;;;;;;;1.67;1.30;;;;;;;17.41;42.97;100506.17;1766455;80;21792;-65
2022/10/15 11:05:28;;;;;;;1.67;1.20;;;;;;;17.41;42.10;100504.84;1756067;80;21096;-65
2022/10/15 11:08:03;;;;;;;1.50;1.40;;;;;;;17.43;42.57;100497.63;1759528;80;21590;-65
2022/10/15 11:10:42;;;;;;;1.65;1.30;;;;;;;17.46;41.67;100496.14;1753582;80;21151;-63
2022/10/15 11:13:21;;;;;;;1.90;1.30;;;;;;;17.47;41.84;100496.50;1755088;80;21436;-65
2022/10/15 11:16:07;;;;;;;1.55;1.10;;;;;;;17.55;41.17;100495.20;1751987;80;21522;-64
2022/10/15 11:18:56;;;;;;;1.77;1.10;;;;;;;17.36;41.31;100487.45;1763411;80;21761;-63
2022/10/15 11:21:41;;;;;;;3.70;1.50;;;;;;;17.38;41.61;100490.38;1765464;79;20958;-65
2022/10/15 11:24:46;;;;;;;1.40;1.30;;;;;;;17.52;41.21;100482.95;1755308;80;21602;-65
2022/10/15 11:27:27;;;;;;;1.32;0.88;;;;;;;17.53;41.16;100496.62;1760705;79;20990;-63
2022/10/15 11:30:21;;;;;;;1.62;1.20;;;;;;;17.57;40.50;100491.50;1753056;80;21811;-64
2022/10/15 11:33:11;;;;;;;1.60;1.20;;;;;;;17.60;40.42;100491.81;1760561;80;21628;-64
2022/10/15 11:35:53;;;;;;;1.22;1.12;;;;;;;17.59;40.22;100488.28;1762579;80;21546;-65
2022/10/15 11:38:43;;;;;;;2.37;1.25;;;;;;;17.63;40.17;100487.63;1748400;80;21462;-66
2022/10/15 11:41:38;;;;;;;1.62;1.35;;;;;;;17.61;39.86;100486.86;1755532;80;21431;-64
2022/10/15 11:44:37;;;;;;;3.10;1.95;;;;;;;17.60;40.04;100487.34;1766856;80;22096;-64
2022/10/15 11:47:11;;;;;;;2.50;1.32;;;;;;;17.61;39.86;100486.41;1767653;80;21983;-65
2022/10/15 11:50:20;;;;;;;1.30;1.20;;;;;;;17.62;39.77;100489.44;1763424;80;21530;-64
2022/10/15 11:53:17;;;;;;;3.45;1.42;;;;;;;17.57;39.80;100487.52;1677848;83;21470;-66
2022/10/15 11:55:55;;;;;;;2.02;1.17;;;;;;;17.61;39.43;100482.88;1687122;83;21467;-67
2022/10/15 11:58:46;;;;;;;;;;;;;;;17.77;39.06;100478.85;1711528;81;21706;-67